Airfield :
LOGIN :

Register | Disclaimer

   EN    FR    IT 

 










Legend :    VFR   Marginal VFR   IFR   Intensive IFR   Very Intensive IFR
Visi :
Ceiling :
>= 8 km
>= 3000ft
5 to 8 km
1000 to 3000 ft
1500m to 5 km
500 to 1000 ft
800 to 1500m
200 to 500 ft
< 800m
< 200 ft
Symbols :   Thunderstorms  Fog  Heavy snow  Heavy precipitations  Wind > 20 kt
SIGMETs :     Misc.  Thunderstorms  Icing  Turbulence  Mountain Waves  Volcanic Ashes






- Airport Elevation : 458 ft


LFSI - St-Dizier

CURRENT METAR :
  • 240000Z AUTO 09006KT 4800 BR NSC M02/M04 Q1025

EXPIRED METARs :
  • 232330Z AUTO 10007KT 4800 BR NSC M02/M04 Q1025
  • 232300Z AUTO 10006KT 4800 BR NSC M03/M04 Q1025
  • 232230Z AUTO 09005KT 5000 BR NSC M02/M04 Q1026
  • 232200Z AUTO 11005KT 5000 BR NSC M02/M03 Q1026
  • 232130Z AUTO 11004KT 5000 BR NSC M02/M03 Q1026

TAF TAF LFSI
Valid from the 23 at 21:00 until the 24 at 21:00 UTC


232000Z 2321/2421 08005KT 6000 SCT010
TEMPO 2321/2408 4000 BR BKN005



MET'MAP, your aeronautical weather chart ! - Copyright ORBIFLY December 2007 - Disclaimer

ORBIFLY MET'MAP TEAM :

Programming & Development : Alexandra Zaïnal
Concept & original design : Baudouin d'Aumeries
Assistance for programming : Marc-Olivier Méhu
Technical & hardware support : Manuel Goepfert

Contact : metmap@orbifly.com




SOURCES & CREDITS :

   NOAA